createdAt,value
2023-01-04T00:01:47.849Z,101555.47
2023-01-04T00:04:20.939Z,101549.41
2023-01-04T00:06:53.564Z,101545.94
2023-01-04T00:09:26.622Z,101534.97
2023-01-04T00:12:00.729Z,101534.34
2023-01-04T00:14:33.819Z,101519.88
2023-01-04T00:17:06.996Z,101516.59
2023-01-04T00:19:40.337Z,101517.78
2023-01-04T00:22:13.435Z,101526.78
2023-01-04T00:24:46.706Z,101507.09
2023-01-04T00:27:21.228Z,101502.13
2023-01-04T00:29:54.475Z,101514.78
2023-01-04T00:32:27.516Z,101507.38
2023-01-04T00:35:02.440Z,101498.53
2023-01-04T00:37:35.523Z,101495.66
2023-01-04T00:40:08.859Z,101479.47
2023-01-04T00:42:43.231Z,101491.13
2023-01-04T00:45:16.653Z,101483.38
2023-01-04T00:47:49.521Z,101487.25
2023-01-04T00:50:24.825Z,101490.66
2023-01-04T00:52:57.673Z,101477.72
2023-01-04T00:55:30.950Z,101495.50
2023-01-04T00:58:05.981Z,101479.31
2023-01-04T01:00:39.555Z,101471.81
2023-01-04T01:03:12.734Z,101469.97
2023-01-04T01:05:45.894Z,101470.66
2023-01-04T01:08:27.343Z,101468.34
2023-01-04T01:11:04.982Z,101465.38
2023-01-04T01:13:40.273Z,101467.84
2023-01-04T01:16:17.101Z,101475.00
2023-01-04T01:18:50.736Z,101457.31
2023-01-04T01:21:27.185Z,101470.94
2023-01-04T01:24:00.053Z,101479.50
2023-01-04T01:26:33.294Z,101474.38
2023-01-04T01:29:10.286Z,101457.75
2023-01-04T01:31:43.588Z,101453.00
2023-01-04T01:34:16.535Z,101454.41
2023-01-04T01:36:49.319Z,101444.16
2023-01-04T01:39:22.051Z,101441.78
2023-01-04T01:41:56.372Z,101452.28
2023-01-04T01:44:56.220Z,101441.31
2023-01-04T01:47:37.095Z,101442.94
2023-01-04T01:50:21.898Z,101444.03
2023-01-04T01:52:56.108Z,101453.13
2023-01-04T01:55:32.373Z,101453.13
2023-01-04T01:58:09.896Z,101442.47
2023-01-04T02:00:44.184Z,101447.34
2023-01-04T02:03:19.930Z,101449.66
2023-01-04T02:05:56.500Z,101452.31
2023-01-04T02:08:31.147Z,101460.72
2023-01-04T02:11:04.883Z,101462.56
2023-01-04T02:13:58.161Z,101460.25
2023-01-04T02:16:52.116Z,101457.84
2023-01-04T02:19:43.939Z,101446.88
2023-01-04T02:23:11.918Z,101457.78
2023-01-04T02:26:10.667Z,101452.38
2023-01-04T02:29:08.105Z,101443.50
2023-01-04T02:31:46.447Z,101443.34
2023-01-04T02:34:29.807Z,101438.13
2023-01-04T02:37:13.146Z,101436.19
2023-01-04T02:39:57.417Z,101438.41
2023-01-04T02:42:58.760Z,101428.78
2023-01-04T02:45:39.098Z,101428.41
2023-01-04T02:48:31.561Z,101436.28
2023-01-04T02:51:04.766Z,101414.56
2023-01-04T02:53:41.329Z,101419.41
2023-01-04T02:56:35.308Z,101419.78
2023-01-04T02:59:22.420Z,101418.72
2023-01-04T03:02:22.119Z,101413.91
2023-01-04T03:05:24.236Z,101394.03
2023-01-04T03:08:06.844Z,101398.94
2023-01-04T03:10:42.668Z,101394.41
2023-01-04T03:13:19.708Z,101399.19
2023-01-04T03:15:55.843Z,101389.25
2023-01-04T03:18:32.051Z,101387.34
2023-01-04T03:21:10.733Z,101390.69
2023-01-04T03:24:03.693Z,101390.13
2023-01-04T03:26:58.310Z,101395.84
2023-01-04T03:29:55.575Z,101383.91
2023-01-04T03:32:55.012Z,101381.63
2023-01-04T03:35:38.703Z,101382.03
2023-01-04T03:38:37.869Z,101382.47
2023-01-04T03:41:37.625Z,101380.25
2023-01-04T03:44:33.219Z,101370.06
2023-01-04T03:47:27.355Z,101382.06
2023-01-04T03:50:08.146Z,101380.13
2023-01-04T03:52:44.785Z,101382.63
2023-01-04T03:55:19.831Z,101370.94
2023-01-04T03:57:53.813Z,101360.81
2023-01-04T04:00:27.200Z,101343.94
2023-01-04T04:03:07.379Z,101345.22
2023-01-04T04:05:59.949Z,101354.47
2023-01-04T04:08:32.728Z,101338.81
2023-01-04T04:11:21.065Z,101334.81
2023-01-04T04:13:54.121Z,101332.81
2023-01-04T04:16:27.414Z,101344.13
2023-01-04T04:19:06.457Z,101345.28
2023-01-04T04:21:41.696Z,101340.31
2023-01-04T04:24:19.111Z,101341.38
2023-01-04T04:26:54.835Z,101339.00
2023-01-04T04:29:27.719Z,101346.22
2023-01-04T04:32:00.796Z,101336.69
2023-01-04T04:34:33.939Z,101334.38
2023-01-04T04:37:07.199Z,101339.78
2023-01-04T04:39:39.995Z,101325.56
2023-01-04T04:42:13.337Z,101329.03
2023-01-04T04:44:46.334Z,101318.75
2023-01-04T04:47:19.038Z,101320.34
2023-01-04T04:49:51.962Z,101333.78
2023-01-04T04:52:24.973Z,101328.53
2023-01-04T04:54:57.939Z,101320.78
2023-01-04T04:57:32.376Z,101315.59
2023-01-04T05:00:06.410Z,101308.00
2023-01-04T05:02:39.664Z,101290.84
2023-01-04T05:05:12.684Z,101293.16
2023-01-04T05:07:45.852Z,101285.28
2023-01-04T05:10:19.179Z,101280.03
2023-01-04T05:13:01.328Z,101285.03
2023-01-04T05:15:36.795Z,101290.97
2023-01-04T05:18:11.790Z,101275.50
2023-01-04T05:20:44.969Z,101266.69
2023-01-04T05:23:20.090Z,101258.03
2023-01-04T05:25:57.599Z,101263.81
2023-01-04T05:28:32.021Z,101257.28
2023-01-04T05:31:03.908Z,101266.69
2023-01-04T05:33:36.795Z,101252.53
2023-01-04T05:36:09.528Z,101245.22
2023-01-04T05:38:42.517Z,101235.06
2023-01-04T05:41:29.225Z,101239.63
2023-01-04T05:44:03.450Z,101237.31
2023-01-04T05:46:36.264Z,101245.81
2023-01-04T05:49:09.056Z,101270.47
2023-01-04T05:51:41.901Z,101265.94
2023-01-04T05:54:20.957Z,101280.78
2023-01-04T05:56:54.318Z,101269.84
2023-01-04T05:59:28.574Z,101277.03
2023-01-04T06:02:01.526Z,101270.59
2023-01-04T06:04:34.176Z,101277.41
2023-01-04T06:07:07.185Z,101273.34
2023-01-04T06:09:39.833Z,101270.63
2023-01-04T06:12:13.433Z,101262.25
2023-01-04T06:14:47.856Z,101273.63
2023-01-04T06:17:21.908Z,101283.28
2023-01-04T06:19:54.816Z,101279.41
2023-01-04T06:22:28.762Z,101282.38
2023-01-04T06:25:01.750Z,101277.16
2023-01-04T06:27:34.348Z,101272.53
2023-01-04T06:30:10.053Z,101265.75
2023-01-04T06:32:43.550Z,101274.41
2023-01-04T06:35:16.681Z,101270.94
2023-01-04T06:37:49.895Z,101257.53
2023-01-04T06:40:23.055Z,101249.28
2023-01-04T06:42:56.759Z,101252.44
2023-01-04T06:45:31.066Z,101251.34
2023-01-04T06:48:09.193Z,101252.44
2023-01-04T06:50:44.425Z,101247.06
2023-01-04T06:53:17.636Z,101235.75
2023-01-04T06:55:50.758Z,101244.31
2023-01-04T06:58:23.758Z,101241.19
2023-01-04T07:00:58.316Z,101239.97
2023-01-04T07:03:31.173Z,101227.31
2023-01-04T07:06:08.231Z,101232.38
2023-01-04T07:08:41.221Z,101230.03
2023-01-04T07:11:14.032Z,101238.00
2023-01-04T07:13:46.855Z,101219.16
2023-01-04T07:16:21.678Z,101217.22
2023-01-04T07:18:54.537Z,101214.41
2023-01-04T07:21:27.356Z,101216.41
2023-01-04T07:24:00.100Z,101220.78
2023-01-04T07:26:33.044Z,101224.91
2023-01-04T07:29:18.350Z,101218.56
2023-01-04T07:31:53.690Z,101216.91
2023-01-04T07:34:27.404Z,101220.84
2023-01-04T07:37:00.631Z,101221.66
2023-01-04T07:39:33.531Z,101227.22
2023-01-04T07:42:06.579Z,101218.66
2023-01-04T07:44:39.552Z,101219.66
2023-01-04T07:47:14.256Z,101212.13
2023-01-04T07:49:50.185Z,101224.78
2023-01-04T07:52:23.387Z,101204.38
2023-01-04T07:54:56.329Z,101216.59
2023-01-04T07:57:29.556Z,101208.19
2023-01-04T08:00:02.297Z,101205.97
2023-01-04T08:02:46.114Z,101221.50
2023-01-04T08:05:19.124Z,101219.94
2023-01-04T08:07:51.880Z,101233.31
2023-01-04T08:10:27.404Z,101215.50
2023-01-04T08:13:01.084Z,101214.56
2023-01-04T08:15:34.211Z,101228.03
2023-01-04T08:18:09.261Z,101209.88
2023-01-04T08:20:42.464Z,101231.19
2023-01-04T08:23:15.593Z,101227.22
2023-01-04T08:25:48.388Z,101231.06
2023-01-04T08:28:21.432Z,101249.91
2023-01-04T08:30:54.460Z,101228.72
2023-01-04T08:33:28.825Z,101242.19
2023-01-04T08:36:09.507Z,101245.78
2023-01-04T08:44:43.613Z,101274.16
2023-01-04T08:47:16.363Z,101267.44
2023-01-04T08:49:50.781Z,101271.41
2023-01-04T08:52:23.918Z,101263.06
2023-01-04T08:54:56.558Z,101274.88
2023-01-04T08:57:29.429Z,101280.09
2023-01-04T09:00:02.371Z,101288.66
2023-01-04T09:02:35.321Z,101284.34
2023-01-04T09:05:09.857Z,101292.94
2023-01-04T09:07:42.978Z,101280.41
2023-01-04T09:10:16.527Z,101289.63
2023-01-04T09:12:49.077Z,101283.63
2023-01-04T09:15:21.922Z,101270.72
2023-01-04T09:20:49.117Z,101287.19
2023-01-04T09:23:22.119Z,101296.69
2023-01-04T09:25:54.737Z,101299.88
2023-01-04T09:28:27.978Z,101296.00
2023-01-04T09:31:06.253Z,101296.69
2023-01-04T09:34:12.246Z,101308.47
2023-01-04T09:36:36.863Z,101294.75
2023-01-04T09:39:16.710Z,101286.88
2023-01-04T09:41:58.486Z,101295.16
2023-01-04T09:47:39.808Z,101319.41
2023-01-04T09:50:17.455Z,101300.63
2023-01-04T09:52:58.706Z,101309.31
2023-01-04T09:55:37.059Z,101315.72
2023-01-04T09:58:25.680Z,101314.56
2023-01-04T10:01:02.893Z,101296.22
2023-01-04T10:03:38.855Z,101317.78
2023-01-04T10:06:15.723Z,101305.66
2023-01-04T10:08:50.555Z,101300.00
2023-01-04T10:11:37.193Z,101307.97
2023-01-04T10:14:31.353Z,101301.13
2023-01-04T10:17:28.159Z,101316.72
2023-01-04T10:23:36.122Z,101298.38
2023-01-04T10:26:14.790Z,101308.59
2023-01-04T10:29:15.722Z,101287.50
2023-01-04T10:31:54.880Z,101302.06
2023-01-04T10:34:31.254Z,101314.53
2023-01-04T10:37:13.640Z,101281.56
2023-01-04T10:39:47.212Z,101300.06
2023-01-04T10:42:31.838Z,101275.44
2023-01-04T10:45:14.037Z,101298.50
2023-01-04T10:47:57.706Z,101294.56
2023-01-04T10:50:38.043Z,101300.06
2023-01-04T10:53:16.957Z,101301.56
2023-01-04T10:56:23.726Z,101296.22
2023-01-04T10:58:53.425Z,101284.56
2023-01-04T11:01:31.446Z,101296.81
2023-01-04T11:04:11.518Z,101308.44
2023-01-04T11:06:49.884Z,101268.75
2023-01-04T11:09:25.989Z,101287.25
2023-01-04T11:11:58.988Z,101289.28
2023-01-04T11:14:37.229Z,101282.69
2023-01-04T11:17:12.817Z,101274.47
2023-01-04T11:19:45.678Z,101293.59
2023-01-04T11:22:23.341Z,101283.13
2023-01-04T11:28:02.200Z,101284.94
2023-01-04T11:30:47.596Z,101254.41
2023-01-04T11:33:23.369Z,101261.28
2023-01-04T11:35:59.217Z,101286.25
2023-01-04T11:38:32.400Z,101267.56
2023-01-04T11:41:06.723Z,101279.34
2023-01-04T11:43:41.031Z,101270.03
2023-01-04T11:46:25.398Z,101283.09
2023-01-04T11:48:58.581Z,101275.19
2023-01-04T11:51:39.431Z,101277.75
2023-01-04T11:54:20.833Z,101261.47
2023-01-04T11:57:08.820Z,101263.31
2023-01-04T11:59:43.802Z,101270.88
2023-01-04T12:02:58.551Z,101246.66
2023-01-04T12:05:28.167Z,101274.13
2023-01-04T12:08:02.140Z,101275.72
2023-01-04T12:10:34.992Z,101269.41
2023-01-04T12:13:11.139Z,101270.66
2023-01-04T12:15:55.361Z,101274.63
2023-01-04T12:18:31.767Z,101270.13
2023-01-04T12:21:05.608Z,101264.84
2023-01-04T12:23:38.714Z,101263.28
2023-01-04T12:26:12.866Z,101257.97
2023-01-04T12:28:47.422Z,101258.16
2023-01-04T12:31:32.383Z,101248.19
2023-01-04T12:34:44.519Z,101264.31
2023-01-04T12:37:49.448Z,101272.78
2023-01-04T12:40:59.331Z,101268.22
2023-01-04T12:43:44.656Z,101261.47
2023-01-04T12:47:00.872Z,101258.41
2023-01-04T12:49:52.474Z,101267.84
2023-01-04T12:53:10.059Z,101268.91
2023-01-04T12:55:58.728Z,101285.91
2023-01-04T13:02:21.828Z,101253.53
2023-01-04T13:05:43.684Z,101274.97
2023-01-04T13:07:53.363Z,101273.22
2023-01-04T13:10:33.275Z,101267.47
2023-01-04T13:13:21.573Z,101272.16
2023-01-04T13:16:11.405Z,101255.34
2023-01-04T13:18:49.132Z,101270.22
2023-01-04T13:21:29.563Z,101265.78
2023-01-04T13:24:05.167Z,101262.31
2023-01-04T13:26:41.051Z,101253.88
2023-01-04T13:29:16.930Z,101268.22
2023-01-04T13:31:56.217Z,101261.53
2023-01-04T13:34:32.939Z,101255.22
2023-01-04T13:37:18.266Z,101256.03
2023-01-04T13:39:53.219Z,101247.22
2023-01-04T13:42:28.893Z,101249.38
2023-01-04T13:45:25.537Z,101248.97
2023-01-04T13:48:01.615Z,101256.03
2023-01-04T13:50:36.794Z,101245.03
2023-01-04T13:53:21.533Z,101256.03
2023-01-04T13:55:55.478Z,101264.31
2023-01-04T13:58:30.693Z,101251.88
2023-01-04T14:01:08.061Z,101233.22
2023-01-04T14:03:43.643Z,101255.56
2023-01-04T14:06:21.218Z,101246.97
2023-01-04T14:09:00.863Z,101256.44
2023-01-04T14:11:54.269Z,101253.03
2023-01-04T14:14:50.022Z,101251.47
2023-01-04T14:17:49.463Z,101259.13
2023-01-04T14:20:37.475Z,101250.63
2023-01-04T14:23:27.283Z,101244.72
2023-01-04T14:26:03.056Z,101257.69
2023-01-04T14:28:41.735Z,101245.91
2023-01-04T14:31:38.236Z,101261.53
2023-01-04T14:34:18.054Z,101258.47
2023-01-04T14:36:50.857Z,101250.53
2023-01-04T14:39:35.471Z,101247.41
2023-01-04T14:42:26.772Z,101242.75
2023-01-04T14:44:59.858Z,101240.38
2023-01-04T14:47:32.708Z,101229.31
2023-01-04T14:50:06.419Z,101240.72
2023-01-04T14:52:39.192Z,101239.84
2023-01-04T14:55:15.044Z,101243.78
2023-01-04T14:57:49.178Z,101244.66
2023-01-04T15:00:22.202Z,101237.78
2023-01-04T15:02:55.421Z,101238.31
2023-01-04T15:05:31.669Z,101245.78
2023-01-04T15:08:07.169Z,101233.94
2023-01-04T15:10:40.282Z,101253.44
2023-01-04T15:13:14.583Z,101259.88
2023-01-04T15:15:47.830Z,101252.34
2023-01-04T15:18:21.446Z,101268.38
2023-01-04T15:20:54.762Z,101267.56
2023-01-04T15:23:28.187Z,101250.69
2023-01-04T15:26:01.870Z,101253.44
2023-01-04T15:28:37.763Z,101236.91
2023-01-04T15:31:13.098Z,101246.28
2023-01-04T15:33:47.311Z,101254.59
2023-01-04T15:36:23.982Z,101245.94
2023-01-04T15:38:59.188Z,101240.44
2023-01-04T15:41:49.335Z,101245.47
2023-01-04T15:44:24.101Z,101247.81
2023-01-04T15:46:59.287Z,101233.78
2023-01-04T15:49:33.995Z,101228.19
2023-01-04T15:52:08.400Z,101230.44
2023-01-04T15:54:41.391Z,101236.25
2023-01-04T15:57:16.788Z,101230.84
2023-01-04T15:59:51.702Z,101243.03
2023-01-04T16:02:24.804Z,101230.56
2023-01-04T16:04:57.858Z,101237.44
2023-01-04T16:07:34.470Z,101242.28
2023-01-04T16:10:10.357Z,101245.28
2023-01-04T16:12:49.828Z,101253.47
2023-01-04T16:15:32.203Z,101262.50
2023-01-04T16:18:11.407Z,101266.88
2023-01-04T16:20:47.952Z,101243.81
2023-01-04T16:23:21.139Z,101278.47
2023-01-04T16:26:05.651Z,101274.06
2023-01-04T16:28:39.184Z,101280.41
2023-01-04T16:31:14.116Z,101267.66
2023-01-04T16:33:49.641Z,101267.97
2023-01-04T16:36:25.447Z,101262.19
2023-01-04T16:38:59.158Z,101250.69
2023-01-04T16:41:33.215Z,101253.44
2023-01-04T16:44:07.391Z,101256.78
2023-01-04T16:46:43.931Z,101260.81
2023-01-04T16:49:18.631Z,101260.19
2023-01-04T16:51:53.249Z,101275.31
2023-01-04T16:54:26.466Z,101281.25
2023-01-04T16:57:01.780Z,101279.06
2023-01-04T16:59:39.305Z,101274.25
2023-01-04T17:02:17.310Z,101276.00
2023-01-04T17:04:57.117Z,101281.03
2023-01-04T17:07:33.132Z,101299.69
2023-01-04T17:10:07.435Z,101299.97
2023-01-04T17:12:47.953Z,101286.69
2023-01-04T17:18:20.890Z,101308.84
2023-01-04T17:20:55.708Z,101306.28
2023-01-04T17:23:37.967Z,101289.00
2023-01-04T17:26:13.680Z,101305.56
2023-01-04T17:28:47.665Z,101311.59
2023-01-04T17:31:26.296Z,101308.81
2023-01-04T17:34:01.138Z,101323.66
2023-01-04T17:36:36.617Z,101348.81
2023-01-04T17:39:09.567Z,101351.13
2023-01-04T17:41:42.401Z,101355.91
2023-01-04T17:44:17.924Z,101345.81
2023-01-04T17:46:50.888Z,101356.00
2023-01-04T17:49:31.045Z,101353.16
2023-01-04T17:52:07.038Z,101360.22
2023-01-04T17:54:41.434Z,101348.19
2023-01-04T17:57:14.384Z,101339.94
2023-01-04T17:59:47.130Z,101349.88
2023-01-04T18:02:19.976Z,101348.38
2023-01-04T18:04:54.384Z,101351.00
2023-01-04T18:07:28.207Z,101357.06
2023-01-04T18:10:04.432Z,101361.69
2023-01-04T18:12:37.514Z,101350.66
2023-01-04T18:15:10.912Z,101372.88
2023-01-04T18:17:43.709Z,101352.66
2023-01-04T18:20:24.697Z,101359.47
2023-01-04T18:22:58.658Z,101358.22
2023-01-04T18:25:34.345Z,101361.69
2023-01-04T18:28:09.205Z,101366.47
2023-01-04T18:30:42.663Z,101369.34
2023-01-04T18:33:20.393Z,101379.72
2023-01-04T18:35:58.176Z,101371.06
2023-01-04T18:38:31.464Z,101369.41
2023-01-04T18:41:07.328Z,101381.81
2023-01-04T18:43:58.827Z,101354.31
2023-01-04T18:46:39.599Z,101346.75
2023-01-04T18:49:14.327Z,101355.28
2023-01-04T18:51:49.014Z,101366.09
2023-01-04T18:54:24.909Z,101369.53
2023-01-04T18:57:05.269Z,101363.81
2023-01-04T18:59:41.288Z,101361.88
2023-01-04T19:02:18.199Z,101374.22
2023-01-04T19:04:51.669Z,101365.34
2023-01-04T19:07:26.409Z,101358.44
2023-01-04T19:10:02.588Z,101367.94
2023-01-04T19:12:39.227Z,101367.06
2023-01-04T19:15:12.868Z,101390.88
2023-01-04T19:17:50.548Z,101389.84
2023-01-04T19:20:23.666Z,101392.97
2023-01-04T19:22:58.268Z,101375.47
2023-01-04T19:25:31.521Z,101385.22
2023-01-04T19:28:04.877Z,101376.22
2023-01-04T19:30:40.088Z,101384.91
2023-01-04T19:33:17.378Z,101404.38
2023-01-04T19:35:50.376Z,101386.53
2023-01-04T19:38:27.452Z,101391.09
2023-01-04T19:41:04.045Z,101400.50
2023-01-04T19:43:39.982Z,101395.34
2023-01-04T19:46:13.466Z,101399.38
2023-01-04T19:48:46.989Z,101390.34
2023-01-04T19:51:24.897Z,101395.28
2023-01-04T19:54:01.300Z,101401.72
2023-01-04T19:56:34.430Z,101394.69
2023-01-04T19:59:09.198Z,101405.03
2023-01-04T20:01:46.383Z,101415.59
2023-01-04T20:04:20.012Z,101417.34
2023-01-04T20:06:54.785Z,101408.59
2023-01-04T20:09:33.206Z,101423.31
2023-01-04T20:12:08.177Z,101419.25
2023-01-04T20:14:41.381Z,101429.69
2023-01-04T20:17:14.677Z,101429.84
2023-01-04T20:19:50.520Z,101433.78
2023-01-04T20:22:23.797Z,101432.25
2023-01-04T20:24:58.506Z,101436.22
2023-01-04T20:27:31.818Z,101438.69
2023-01-04T20:30:05.875Z,101441.28
2023-01-04T20:32:39.139Z,101446.34
2023-01-04T20:35:12.878Z,101435.47
2023-01-04T20:37:48.841Z,101447.63
2023-01-04T20:40:23.322Z,101452.69
2023-01-04T20:43:15.336Z,101450.88
2023-01-04T20:45:52.177Z,101427.69
2023-01-04T20:48:25.320Z,101445.63
2023-01-04T20:50:59.043Z,101449.38
2023-01-04T20:53:38.901Z,101457.34
2023-01-04T20:56:15.699Z,101455.38
2023-01-04T20:58:49.375Z,101466.03
2023-01-04T21:01:23.691Z,101469.34
2023-01-04T21:03:57.080Z,101471.66
2023-01-04T21:06:30.944Z,101477.16
2023-01-04T21:09:04.436Z,101475.06
2023-01-04T21:11:38.868Z,101459.09
2023-01-04T21:14:18.302Z,101476.44
2023-01-04T21:16:53.898Z,101471.50
2023-01-04T21:19:27.467Z,101471.09
2023-01-04T21:22:04.288Z,101476.88
2023-01-04T21:24:37.681Z,101467.56
2023-01-04T21:27:12.424Z,101497.44
2023-01-04T21:29:46.815Z,101492.81
2023-01-04T21:32:20.642Z,101499.72
2023-01-04T21:34:55.712Z,101493.75
2023-01-04T21:37:29.457Z,101493.13
2023-01-04T21:40:02.346Z,101497.47
2023-01-04T21:42:36.583Z,101504.53
2023-01-04T21:45:12.387Z,101500.84
2023-01-04T21:47:48.525Z,101505.53
2023-01-04T21:50:21.571Z,101510.91
2023-01-04T21:52:58.059Z,101502.00
2023-01-04T21:55:34.619Z,101499.41
2023-01-04T21:58:11.318Z,101497.47
2023-01-04T22:00:46.036Z,101511.78
2023-01-04T22:03:19.419Z,101503.13
2023-01-04T22:05:52.562Z,101505.66
2023-01-04T22:08:25.228Z,101511.66
2023-01-04T22:10:58.330Z,101512.63
2023-01-04T22:13:35.629Z,101502.84
2023-01-04T22:16:10.943Z,101516.94
2023-01-04T22:18:47.436Z,101511.66
2023-01-04T22:21:23.950Z,101523.81
2023-01-04T22:23:57.115Z,101520.34
2023-01-04T22:26:30.249Z,101534.50
2023-01-04T22:29:06.871Z,101534.50
2023-01-04T22:31:39.806Z,101526.41
2023-01-04T22:34:14.241Z,101536.38
2023-01-04T22:36:47.295Z,101527.25
2023-01-04T22:39:21.431Z,101526.88
2023-01-04T22:41:54.375Z,101538.00
2023-01-04T22:44:28.447Z,101545.16
2023-01-04T22:47:07.507Z,101533.06
2023-01-04T22:49:40.486Z,101548.41
2023-01-04T22:52:13.311Z,101537.16
2023-01-04T22:54:49.390Z,101540.88
2023-01-04T22:57:24.669Z,101540.75
2023-01-04T22:59:59.070Z,101536.81
2023-01-04T23:02:32.506Z,101541.03
2023-01-04T23:05:06.324Z,101564.69
2023-01-04T23:07:39.205Z,101556.28
2023-01-04T23:10:12.245Z,101574.28
2023-01-04T23:12:48.260Z,101558.72
2023-01-04T23:15:22.470Z,101551.13
2023-01-04T23:17:55.500Z,101552.13
2023-01-04T23:20:28.995Z,101566.75
2023-01-04T23:23:01.857Z,101560.09
2023-01-04T23:25:38.735Z,101562.56
2023-01-04T23:28:11.785Z,101563.06
2023-01-04T23:30:48.951Z,101570.47
2023-01-04T23:33:24.055Z,101565.25
2023-01-04T23:36:00.093Z,101574.22
2023-01-04T23:38:33.001Z,101580.13
2023-01-04T23:41:06.041Z,101573.91
2023-01-04T23:43:39.821Z,101582.34
2023-01-04T23:46:16.127Z,101568.84
2023-01-04T23:48:49.066Z,101571.19
2023-01-04T23:51:21.759Z,101581.44
2023-01-04T23:53:54.583Z,101570.16
2023-01-04T23:56:27.757Z,101581.13
2023-01-04T23:59:01.041Z,101589.53
